Bookmark and Share
Track history (hours):
 

Grits

Last reported at 2014-Apr-17 06:32 UTC. Time now 2014-Apr-17 06:43 UTC.
Position N 26°06' W 080°07'.

Length 26 m.

Type: Pleasure craft. MMSI: 375751000.

NotesDate/timePositionNaut miles runAvg speedWind from/ knotsBaromVisibWave heightAir tempDewpointWater temp
2014-Apr-17 06:32N 26°06' W 080°07'0 0.0
2014-Apr-17 05:32N 26°06' W 080°07'0 0.0
2014-Apr-17 04:32N 26°06' W 080°07'0 0.0
2014-Apr-17 03:23N 26°06' W 080°07'0 0.0
2014-Apr-17 02:20N 26°06' W 080°07'0 0.0
2014-Apr-17 01:26N 26°06' W 080°07'0 0.0
2014-Apr-17 00:26N 26°06' W 080°07'0 0.0
2014-Apr-16 23:26N 26°06' W 080°07'0 0.0
2014-Apr-16 22:29N 26°06' W 080°07'0 0.0
2014-Apr-16 21:26N 26°06' W 080°07'1 0.6
2014-Apr-16 20:33N 26°07' W 080°07'2 2.2
2014-Apr-16 19:31N 26°06' W 080°10'0 0.2
2014-Apr-16 18:25N 26°06' W 080°10'0 0.0
2014-Apr-16 17:25N 26°06' W 080°10'0 0.0
2014-Apr-16 16:28N 26°06' W 080°10'2 1.5
2014-Apr-16 15:28N 26°07' W 080°09'2 1.8
2014-Apr-16 14:33N 26°06' W 080°07'0 0.1
2014-Apr-16 13:33N 26°06' W 080°07'0 0.4
2014-Apr-16 12:29N 26°06' W 080°07'0 0.0
2014-Apr-16 11:32N 26°06' W 080°07'0 0.0
2014-Apr-16 10:32N 26°06' W 080°07'0 0.0
2014-Apr-16 09:32N 26°06' W 080°07'0 0.0
2014-Apr-16 08:32N 26°06' W 080°07'0 0.0
2014-Apr-16 07:32N 26°06' W 080°07'0 0.0
2014-Apr-16 06:32N 26°06' W 080°07'0 0.0
2014-Apr-16 05:32N 26°06' W 080°07'0 0.0
2014-Apr-16 04:23N 26°06' W 080°07'0 0.0
2014-Apr-16 03:26N 26°06' W 080°07'0 0.0
2014-Apr-16 02:26N 26°06' W 080°07'0 0.0
2014-Apr-16 01:26N 26°06' W 080°07'0 0.0
2014-Apr-16 00:29N 26°06' W 080°07'0 0.0
2014-Apr-15 23:26N 26°06' W 080°07'0 0.0
2014-Apr-15 22:29N 26°06' W 080°07'0 0.0
2014-Apr-15 21:32N 26°06' W 080°07'0 0.0
2014-Apr-15 20:32N 26°06' W 080°07'0 0.0
2014-Apr-15 19:32N 26°06' W 080°07'0 0.0
2014-Apr-15 18:32N 26°06' W 080°07'0 0.0
2014-Apr-15 17:32N 26°06' W 080°07'0 0.0
2014-Apr-15 16:32N 26°06' W 080°07'0 0.0
2014-Apr-15 15:32N 26°06' W 080°07'0 0.0
2014-Apr-15 14:23N 26°06' W 080°07'0 0.0
2014-Apr-15 09:30N 26°06' W 080°07'0 0.0
2014-Apr-15 08:30N 26°06' W 080°07'0 0.0
2014-Apr-15 07:30N 26°06' W 080°07'0 0.0
2014-Apr-15 06:33N 26°06' W 080°07'0 0.0
2014-Apr-15 05:33N 26°06' W 080°07'0 0.0
2014-Apr-15 03:32N 26°06' W 080°07'0 0.0
2014-Apr-15 02:32N 26°06' W 080°07'0 0.0
2014-Apr-15 01:32N 26°06' W 080°07'0 0.0
2014-Apr-15 00:32N 26°06' W 080°07'0 0.0
2014-Apr-14 19:29N 26°06' W 080°07'0 0.0
2014-Apr-14 18:29N 26°06' W 080°07'0 0.0
2014-Apr-14 17:29N 26°06' W 080°07'0 0.0
2014-Apr-14 16:32N 26°06' W 080°07'0 0.0
2014-Apr-14 15:32N 26°06' W 080°07'3 3.3
2014-Apr-14 14:30N 26°09' W 080°05'3 0.7
2014-Apr-14 09:32N 26°06' W 080°07'0 0.0
2014-Apr-14 08:32N 26°06' W 080°07'0 0.0
2014-Apr-13 22:30N 26°06' W 080°07'0 0.0
2014-Apr-13 21:30N 26°06' W 080°07'0 0.0
2014-Apr-13 20:30N 26°06' W 080°07'0 0.0
2014-Apr-13 19:33N 26°06' W 080°07'0 0.0
2014-Apr-13 16:06N 26°06' W 080°07'0 0.0
2014-Apr-13 15:24N 26°06' W 080°07'0 0.0
2014-Apr-13 14:24N 26°06' W 080°07'0 0.0
2014-Apr-13 13:24N 26°06' W 080°07'0 0.0
2014-Apr-13 12:24N 26°06' W 080°07'0 0.0
2014-Apr-13 11:30N 26°06' W 080°07'0 0.0
2014-Apr-13 10:30N 26°06' W 080°07'0 0.0
2014-Apr-13 09:33N 26°06' W 080°07'0 0.0
2014-Apr-13 08:33N 26°06' W 080°07'0 0.0
2014-Apr-13 07:30N 26°06' W 080°07'0 0.0
2014-Apr-13 06:30N 26°06' W 080°07'0 0.0
2014-Apr-13 05:33N 26°06' W 080°07'0 0.0
2014-Apr-13 04:21N 26°06' W 080°07'0 0.0
2014-Apr-13 03:33N 26°06' W 080°07'0 0.0
2014-Apr-13 02:24N 26°06' W 080°07'0 0.0
2014-Apr-13 01:24N 26°06' W 080°07'0 0.0
2014-Apr-13 00:24N 26°06' W 080°07'0 0.0
2014-Apr-12 23:24N 26°06' W 080°07'0 0.0
2014-Apr-12 22:24N 26°06' W 080°07'0 0.0
2014-Apr-12 21:30N 26°06' W 080°07'0 0.0
2014-Apr-12 20:30N 26°06' W 080°07'0 0.0
2014-Apr-12 19:33N 26°06' W 080°07'0 0.0
2014-Apr-12 18:33N 26°06' W 080°07'0 0.0
2014-Apr-12 17:33N 26°06' W 080°07'0 0.0
2014-Apr-12 16:33N 26°06' W 080°07'0 0.0
2014-Apr-12 15:18N 26°06' W 080°07'0 0.0
2014-Apr-12 14:18N 26°06' W 080°07'0 0.0
2014-Apr-12 13:24N 26°06' W 080°07'0 0.0
2014-Apr-12 12:24N 26°06' W 080°07'0 0.0
2014-Apr-12 11:27N 26°06' W 080°07'0 0.0
2014-Apr-12 10:27N 26°06' W 080°07'0 0.0
2014-Apr-12 09:24N 26°06' W 080°07'0 0.0
2014-Apr-12 08:30N 26°06' W 080°07'0 0.0
2014-Apr-12 07:15N 26°06' W 080°07'0 0.0
2014-Apr-12 06:27N 26°06' W 080°07'0 0.0
2014-Apr-12 05:33N 26°06' W 080°07'0 0.0
2014-Apr-12 04:33N 26°06' W 080°07'0 0.0
2014-Apr-12 03:33N 26°06' W 080°07'0 0.0
2014-Apr-12 02:33N 26°06' W 080°07'0 0.0
2014-Apr-12 01:33N 26°06' W 080°07'0 0.0
2014-Apr-12 00:18N 26°06' W 080°07'0 0.0
2014-Apr-11 23:33N 26°06' W 080°07'0 0.0
2014-Apr-11 22:24N 26°06' W 080°07'0 0.0
2014-Apr-11 21:27N 26°06' W 080°07'0 0.0
2014-Apr-11 20:27N 26°06' W 080°07'0 0.0
2014-Apr-11 19:27N 26°06' W 080°07'0 0.0
2014-Apr-11 18:30N 26°06' W 080°07'0 0.0
2014-Apr-11 17:30N 26°06' W 080°07'0 0.0
2014-Apr-11 16:30N 26°06' W 080°07'0 0.0
2014-Apr-11 15:33N 26°06' W 080°07'0 0.0
2014-Apr-11 14:33N 26°06' W 080°07'0 0.0
2014-Apr-11 13:30N 26°06' W 080°07'0 0.0
2014-Apr-11 12:30N 26°06' W 080°07'0 0.0
2014-Apr-11 11:18N 26°06' W 080°07'0 0.0
2014-Apr-11 10:33N 26°06' W 080°07'0 0.0
2014-Apr-11 09:33N 26°06' W 080°07'0 0.0
2014-Apr-11 08:21N 26°06' W 080°07'0 0.0
2014-Apr-11 07:27N 26°06' W 080°07'0 0.0
2014-Apr-11 06:27N 26°06' W 080°07'0 0.0
2014-Apr-11 05:24N 26°06' W 080°07'0 0.0
2014-Apr-11 04:27N 26°06' W 080°07'0 0.0
2014-Apr-11 03:30N 26°06' W 080°07'0 0.0
2014-Apr-11 02:30N 26°06' W 080°07'0 0.0
2014-Apr-11 01:30N 26°06' W 080°07'0 0.0
2014-Apr-11 00:30N 26°06' W 080°07'0 0.0
2014-Apr-10 23:18N 26°06' W 080°07'0 0.0
2014-Apr-10 22:30N 26°06' W 080°07'0 0.0
2014-Apr-10 21:06N 26°06' W 080°07'0 0.0
2014-Apr-10 20:33N 26°06' W 080°07'0 0.0
2014-Apr-10 19:24N 26°06' W 080°08'0 0.0
2014-Apr-10 18:24N 26°06' W 080°07'0 0.0
2014-Apr-10 17:12N 26°06' W 080°07'0 0.0
2014-Apr-10 16:12N 26°06' W 080°07'0 0.0
2014-Apr-10 15:24N 26°06' W 080°07'0 0.0
2014-Apr-10 14:30N 26°06' W 080°07'0 0.0
2014-Apr-10 13:30N 26°06' W 080°07'0 0.0
2014-Apr-10 12:30N 26°06' W 080°07'0 0.0
2014-Apr-10 11:18N 26°06' W 080°07'0 0.0
2014-Apr-10 10:30N 26°06' W 080°07'0 0.0
2014-Apr-10 09:33N 26°06' W 080°07'0 0.0
2014-Apr-10 08:30N 26°06' W 080°07'0 0.0
2014-Apr-10 07:33N 26°06' W 080°07'0 0.0
2014-Apr-10 06:24N 26°06' W 080°07'0 0.0
2014-Apr-10 05:24N 26°06' W 080°07'0 0.0
2014-Apr-10 03:24N 26°06' W 080°07'0 0.0
2014-Apr-10 00:30N 26°06' W 080°07'0 0.0
2014-Apr-09 23:30N 26°06' W 080°07'0 0.0
2014-Apr-09 22:18N 26°06' W 080°07'0 0.0
2014-Apr-09 21:33N 26°06' W 080°07'0 0.0
2014-Apr-09 20:30N 26°06' W 080°07'0 0.0
2014-Apr-09 19:33N 26°06' W 080°07'0 0.0
2014-Apr-09 18:33N 26°06' W 080°07'0 0.0
2014-Apr-09 17:33N 26°06' W 080°07'0 0.0
2014-Apr-09 16:33N 26°06' W 080°07'0 0.0
2014-Apr-09 15:24N 26°06' W 080°07'0 0.0
2014-Apr-09 14:24N 26°06' W 080°07'0 0.0
2014-Apr-09 13:24N 26°06' W 080°07'0 0.0
2014-Apr-09 11:24N 26°06' W 080°07'0 0.0
2014-Apr-09 10:27N 26°06' W 080°07'0 0.0
2014-Apr-09 09:30N 26°06' W 080°07'0 0.0
2014-Apr-09 08:30N 26°06' W 080°07'0 0.0
2014-Apr-09 07:30N 26°06' W 080°07'0 0.0
2014-Apr-09 06:33N 26°06' W 080°07'0 0.0
2014-Apr-09 05:30N 26°06' W 080°07'0 0.0
2014-Apr-09 04:33N 26°06' W 080°07'0 0.0
2014-Apr-09 03:21N 26°06' W 080°07'0 0.0
2014-Apr-09 02:33N 26°06' W 080°07'0 0.0
2014-Apr-09 01:06N 26°06' W 080°07'0 0.0
2014-Apr-09 00:24N 26°06' W 080°07'0 0.0
2014-Apr-08 23:27N 26°06' W 080°07'0 0.0
2014-Apr-08 22:27N 26°06' W 080°07'0 0.0
2014-Apr-08 21:27N 26°06' W 080°07'0 0.0
2014-Apr-08 20:30N 26°06' W 080°07'0 0.0
2014-Apr-08 19:30N 26°06' W 080°07'0 0.0
2014-Apr-08 18:30N 26°06' W 080°07'0 0.0
2014-Apr-08 17:33N 26°06' W 080°07'0 0.0
2014-Apr-08 16:30N 26°06' W 080°07'0 0.0
2014-Apr-08 15:33N 26°06' W 080°07'0 0.0
2014-Apr-08 14:33N 26°06' W 080°07'0 0.0
2014-Apr-08 13:21N 26°06' W 080°07'0 0.0
2014-Apr-08 12:33N 26°06' W 080°07'0 0.0
2014-Apr-08 11:24N 26°06' W 080°07'0 0.0
2014-Apr-08 10:21N 26°06' W 080°07'0 0.0
2014-Apr-08 09:27N 26°06' W 080°07'0 0.0
2014-Apr-08 08:27N 26°06' W 080°07'0 0.0
2014-Apr-08 07:27N 26°06' W 080°07'0 0.0
2014-Apr-08 06:27N 26°06' W 080°07'0 0.0
2014-Apr-08 05:27N 26°06' W 080°07'0 0.0
2014-Apr-08 04:27N 26°06' W 080°07'0 0.0
2014-Apr-08 03:30N 26°06' W 080°07'0 0.0
2014-Apr-08 02:30N 26°06' W 080°07'0 0.0
2014-Apr-08 01:33N 26°06' W 080°07'0 0.0
2014-Apr-08 00:33N 26°06' W 080°07'0 0.0
2014-Apr-07 23:21N 26°06' W 080°07'0 0.0
2014-Apr-07 22:24N 26°06' W 080°07'0 0.0
2014-Apr-07 21:21N 26°06' W 080°07'0 0.0
2014-Apr-07 20:24N 26°06' W 080°07'0 0.0
2014-Apr-07 19:27N 26°06' W 080°07'0 0.0
2014-Apr-07 17:27N 26°06' W 080°07'0 0.0
2014-Apr-07 16:27N 26°06' W 080°07'0 0.0
2014-Apr-07 15:30N 26°06' W 080°07'0 0.0
2014-Apr-07 14:33N 26°06' W 080°07'0 0.0
2014-Apr-07 13:30N 26°06' W 080°07'0 0.0
2014-Apr-07 12:33N 26°06' W 080°07'0 0.0
2014-Apr-07 11:33N 26°06' W 080°07'0 0.0
2014-Apr-07 10:33N 26°06' W 080°07'0 0.0
2014-Apr-07 07:21N 26°06' W 080°07'  

Dump ship's entire track history

sailing weather and tide predictions

Grits — J8Y3897 — position and weather